Time;durP1;ratioP1;P1;durP2;ratioP2;P2;SDS_P1;SDS_P2;PMS_P1;PMS_P2;Temp;Humidity;BMP_temperature;BMP_pressure;BME280_temperature;BME280_humidity;BME280_pressure;Samples;Min_cycle;Max_cycle;Signal;HPM_P1;HPM_P2
2022/08/20 00:01:45;;;;;;;2.08;0.40;;;18.20;99.90;;;;;;5060709;28;19920;-74
2022/08/20 00:04:11;;;;;;;0.30;0.30;;;18.30;99.90;;;;;;5049458;28;20486;-75
2022/08/20 00:06:39;;;;;;;0.20;0.20;;;18.30;99.90;;;;;;5046678;28;20542;-76
2022/08/20 00:09:05;;;;;;;0.20;0.20;;;18.20;99.90;;;;;;5045162;28;20045;-75
2022/08/20 00:11:32;;;;;;;0.40;0.40;;;18.30;99.90;;;;;;5049315;28;20935;-76
2022/08/20 00:14:01;;;;;;;0.65;0.60;;;18.30;99.90;;;;;;5050089;28;20045;-75
2022/08/20 00:16:31;;;;;;;0.40;0.40;;;18.30;99.90;;;;;;5047289;28;20405;-73
2022/08/20 00:19:01;;;;;;;0.73;0.73;;;18.30;99.90;;;;;;5049529;28;20052;-74
2022/08/20 00:21:27;;;;;;;0.30;0.30;;;18.30;99.90;;;;;;5047386;28;20037;-77
2022/08/20 00:23:54;;;;;;;0.25;0.25;;;18.30;99.90;;;;;;5040345;28;20051;-76
2022/08/20 00:26:20;;;;;;;0.60;0.60;;;18.30;99.90;;;;;;5042878;28;20052;-74
2022/08/20 00:28:46;;;;;;;0.70;0.70;;;18.30;99.90;;;;;;5047809;28;20040;-75
2022/08/20 00:31:16;;;;;;;0.68;0.68;;;18.30;99.90;;;;;;5035142;28;20632;-75
2022/08/20 00:33:42;;;;;;;0.80;0.80;;;18.30;99.90;;;;;;5053413;28;20112;-76
2022/08/20 00:36:09;;;;;;;;;;;18.30;99.90;;;;;;5052636;28;20455;-77
2022/08/20 00:38:41;;;;;;;0.30;0.30;;;18.30;99.90;;;;;;5048970;28;19916;-76
2022/08/20 00:41:10;;;;;;;0.40;0.40;;;18.30;99.90;;;;;;5053230;28;20040;-74
2022/08/20 00:44:05;;;;;;;0.85;0.85;;;18.30;99.90;;;;;;5057027;28;20041;-73
2022/08/20 00:46:32;;;;;;;0.20;0.20;;;18.30;99.90;;;;;;5017380;28;20057;-75
2022/08/20 00:48:58;;;;;;;0.65;0.65;;;18.30;99.90;;;;;;5048523;28;20036;-74
2022/08/20 00:51:32;;;;;;;0.60;0.60;;;18.30;99.90;;;;;;5053158;28;20122;-72
2022/08/20 00:54:06;;;;;;;0.20;0.20;;;18.30;99.90;;;;;;5052965;28;20041;-76
2022/08/20 00:56:33;;;;;;;0.20;0.20;;;18.30;99.90;;;;;;5050416;28;20463;-77
2022/08/20 00:58:59;;;;;;;0.40;0.40;;;18.30;99.90;;;;;;5062313;28;20037;-76
2022/08/20 01:01:25;;;;;;;0.40;0.40;;;18.30;99.90;;;;;;5034807;28;20087;-76
2022/08/20 01:03:53;;;;;;;;;;;18.30;99.90;;;;;;5056228;28;20076;-77
2022/08/20 01:06:20;;;;;;;0.50;0.50;;;18.20;99.90;;;;;;5052724;28;19920;-75
2022/08/20 01:08:45;;;;;;;0.25;0.25;;;18.20;99.90;;;;;;5052657;28;20040;-75
2022/08/20 01:11:15;;;;;;;;;;;18.10;99.90;;;;;;5051471;28;20037;-72
2022/08/20 01:13:45;;;;;;;0.95;0.55;;;18.10;99.90;;;;;;5059422;28;19916;-74
2022/08/20 01:16:21;;;;;;;0.20;0.20;;;18.00;99.90;;;;;;5058005;28;20071;-72
2022/08/20 01:18:50;;;;;;;0.57;0.57;;;18.00;99.90;;;;;;5055455;28;20060;-74
2022/08/20 01:21:23;;;;;;;0.28;0.28;;;18.00;99.90;;;;;;5034925;28;20055;-74
2022/08/20 01:24:06;;;;;;;0.75;0.50;;;17.90;99.90;;;;;;5050483;28;20053;-75
2022/08/20 01:26:42;;;;;;;0.55;0.45;;;17.90;99.90;;;;;;5051732;28;20052;-74
2022/08/20 01:29:17;;;;;;;0.40;0.40;;;17.80;99.90;;;;;;5053232;28;20041;-76
2022/08/20 01:31:44;;;;;;;0.68;0.68;;;17.80;99.90;;;;;;5050549;28;20041;-74
2022/08/20 01:34:15;;;;;;;0.47;0.47;;;17.70;99.90;;;;;;5051110;28;20041;-76
2022/08/20 01:36:48;;;;;;;1.02;0.60;;;17.70;99.90;;;;;;5046396;28;20617;-76
2022/08/20 01:39:35;;;;;;;0.45;0.20;;;17.60;99.90;;;;;;5051005;28;20045;-74
2022/08/20 01:42:29;;;;;;;0.50;0.50;;;17.60;99.90;;;;;;5044197;28;20398;-77
2022/08/20 01:44:54;;;;;;;0.40;0.40;;;17.50;99.90;;;;;;5066429;28;20375;-78
2022/08/20 01:47:22;;;;;;;;;;;17.50;99.90;;;;;;5036098;28;20045;-75
2022/08/20 01:49:52;;;;;;;2.47;1.95;;;17.50;99.90;;;;;;5060279;28;19924;-76
2022/08/20 01:53:10;;;;;;;1.42;0.63;;;17.40;99.90;;;;;;5050785;28;20043;-75
2022/08/20 01:55:37;;;;;;;0.40;0.40;;;17.40;99.90;;;;;;4996373;28;20128;-75
2022/08/20 01:58:03;;;;;;;0.20;0.20;;;17.30;99.90;;;;;;5049481;28;20141;-75
2022/08/20 02:00:31;;;;;;;;;;;17.30;99.90;;;;;;5047714;28;20136;-74
2022/08/20 02:02:56;;;;;;;;;;;17.20;99.90;;;;;;5043405;28;19917;-75
2022/08/20 02:05:23;;;;;;;0.20;0.20;;;17.20;99.90;;;;;;5052208;28;19920;-75
2022/08/20 02:07:49;;;;;;;0.82;0.82;;;17.10;99.90;;;;;;5032364;28;20471;-73
2022/08/20 02:10:17;;;;;;;0.30;0.30;;;17.10;99.90;;;;;;5048254;28;20367;-74
2022/08/20 02:12:43;;;;;;;0.93;0.93;;;17.00;99.90;;;;;;5064573;28;20124;-75
2022/08/20 02:15:09;;;;;;;;;;;17.00;99.90;;;;;;5057016;28;20115;-75
2022/08/20 02:17:36;;;;;;;0.30;0.30;;;17.00;99.90;;;;;;5052290;28;19927;-73
2022/08/20 02:20:14;;;;;;;0.47;0.32;;;17.00;99.90;;;;;;5048647;28;20115;-73
2022/08/20 02:22:48;;;;;;;0.32;0.32;;;16.90;99.90;;;;;;5056523;28;20045;-74
2022/08/20 02:25:15;;;;;;;1.35;0.60;;;16.90;99.90;;;;;;5050268;28;20604;-76
2022/08/20 02:27:44;;;;;;;0.73;0.73;;;16.90;99.90;;;;;;5049862;28;20616;-74
2022/08/20 02:30:21;;;;;;;0.88;0.88;;;16.80;99.90;;;;;;5049034;28;20037;-74
2022/08/20 02:32:47;;;;;;;0.55;0.55;;;16.80;99.90;;;;;;5055411;28;20040;-78
2022/08/20 02:35:14;;;;;;;;;;;16.70;99.90;;;;;;5059263;28;20478;-76
2022/08/20 02:37:41;;;;;;;0.75;0.75;;;16.70;99.90;;;;;;5049001;28;19921;-75
2022/08/20 02:40:09;;;;;;;0.30;0.30;;;16.70;99.90;;;;;;5077757;28;20048;-74
2022/08/20 02:42:35;;;;;;;1.08;0.77;;;16.70;99.90;;;;;;5049947;28;20048;-77
2022/08/20 02:45:01;;;;;;;;;;;16.60;99.90;;;;;;5051801;28;20075;-77
2022/08/20 02:47:26;;;;;;;0.57;0.57;;;16.60;99.90;;;;;;5042009;28;19920;-74
2022/08/20 02:49:53;;;;;;;;;;;16.50;99.90;;;;;;5058588;28;20428;-73
2022/08/20 02:52:20;;;;;;;0.30;0.30;;;16.50;99.90;;;;;;5056093;28;19917;-74
2022/08/20 02:54:48;;;;;;;0.52;0.43;;;16.40;99.90;;;;;;5062509;28;20116;-76
2022/08/20 02:57:16;;;;;;;0.20;0.20;;;16.40;99.90;;;;;;5048968;28;20406;-76
2022/08/20 02:59:42;;;;;;;0.85;0.85;;;16.30;99.90;;;;;;5063986;28;20541;-75
2022/08/20 03:02:08;;;;;;;0.50;0.50;;;16.30;99.90;;;;;;5052982;28;20068;-75
2022/08/20 03:04:33;;;;;;;;;;;16.30;99.90;;;;;;5051514;28;20482;-76
2022/08/20 03:06:59;;;;;;;0.52;0.50;;;16.20;99.90;;;;;;5062575;28;19925;-74
2022/08/20 03:09:25;;;;;;;0.40;0.40;;;16.10;99.90;;;;;;5045145;28;20036;-77
2022/08/20 03:11:51;;;;;;;1.02;0.93;;;16.00;99.90;;;;;;5049184;28;20076;-73
2022/08/20 03:14:17;;;;;;;1.65;1.25;;;16.00;99.90;;;;;;5051902;28;20037;-77
2022/08/20 03:16:42;;;;;;;;;;;16.00;99.90;;;;;;5038847;28;20047;-72
2022/08/20 03:19:08;;;;;;;0.32;0.32;;;16.00;99.90;;;;;;5049385;28;20390;-76
2022/08/20 03:21:34;;;;;;;;;;;15.90;99.90;;;;;;5064589;28;20044;-74
2022/08/20 03:23:59;;;;;;;0.57;0.57;;;16.00;99.90;;;;;;5040615;28;19924;-74
2022/08/20 03:26:25;;;;;;;0.60;0.60;;;15.90;99.90;;;;;;5049495;28;20040;-73
2022/08/20 03:28:51;;;;;;;;;;;16.00;99.90;;;;;;5051182;28;20554;-76
2022/08/20 03:31:17;;;;;;;0.43;0.35;;;15.90;99.90;;;;;;5051983;28;19943;-74
2022/08/20 03:33:42;;;;;;;;;;;15.90;99.90;;;;;;5032794;28;20037;-75
2022/08/20 03:36:08;;;;;;;0.40;0.40;;;16.00;99.90;;;;;;5045985;28;19925;-77
2022/08/20 03:38:34;;;;;;;0.57;0.57;;;15.90;99.90;;;;;;5049927;28;20053;-75
2022/08/20 03:41:01;;;;;;;;;;;15.90;99.90;;;;;;5050055;28;20036;-76
2022/08/20 03:43:27;;;;;;;0.30;0.30;;;15.90;99.90;;;;;;5048483;28;19917;-76
2022/08/20 03:45:52;;;;;;;;;;;15.90;99.90;;;;;;5047118;28;20394;-73
2022/08/20 03:48:19;;;;;;;0.40;0.40;;;15.90;99.90;;;;;;5049289;28;19923;-74
2022/08/20 03:50:47;;;;;;;0.20;0.20;;;15.90;99.90;;;;;;5043994;28;20242;-76
2022/08/20 03:53:14;;;;;;;0.30;0.30;;;15.90;99.90;;;;;;5056759;28;20052;-77
2022/08/20 03:55:42;;;;;;;0.38;0.38;;;15.90;99.90;;;;;;5020092;28;20098;-75
2022/08/20 03:58:09;;;;;;;3.08;0.70;;;15.90;99.90;;;;;;5047159;28;20397;-77
2022/08/20 04:00:40;;;;;;;0.30;0.30;;;15.90;99.90;;;;;;5043419;28;20098;-75
2022/08/20 04:03:07;;;;;;;0.10;0.10;;;15.90;99.90;;;;;;5043025;28;20421;-75
2022/08/20 04:05:35;;;;;;;0.43;0.43;;;15.90;99.90;;;;;;5048278;28;20045;-76
2022/08/20 04:08:01;;;;;;;0.80;0.80;;;15.90;99.90;;;;;;5033775;28;20072;-74
2022/08/20 04:10:27;;;;;;;1.85;0.40;;;15.90;99.90;;;;;;5047559;28;21112;-74
2022/08/20 04:12:53;;;;;;;;;;;15.90;99.90;;;;;;5038610;28;20360;-76
2022/08/20 04:15:20;;;;;;;0.20;0.20;;;15.90;99.90;;;;;;5046146;28;19924;-74
2022/08/20 04:17:48;;;;;;;0.40;0.40;;;15.80;99.90;;;;;;5031439;28;20525;-73
2022/08/20 04:20:21;;;;;;;0.22;0.22;;;15.80;99.90;;;;;;5049019;28;20056;-75
2022/08/20 04:22:47;;;;;;;0.30;0.30;;;15.70;99.90;;;;;;5052368;28;20053;-76
2022/08/20 04:25:12;;;;;;;;;;;15.70;99.90;;;;;;5048548;28;20394;-75
2022/08/20 04:27:39;;;;;;;0.28;0.28;;;15.60;99.90;;;;;;5048183;28;20258;-74
2022/08/20 04:30:07;;;;;;;0.30;0.30;;;15.60;99.90;;;;;;5046188;28;20041;-74
2022/08/20 04:32:35;;;;;;;0.40;0.40;;;15.50;99.90;;;;;;5050775;28;20387;-76
2022/08/20 04:35:07;;;;;;;0.47;0.40;;;15.50;99.90;;;;;;5065067;28;20159;-75
2022/08/20 04:37:34;;;;;;;0.30;0.30;;;15.40;99.90;;;;;;5062052;28;20111;-76
2022/08/20 04:42:50;;;;;;;0.30;0.30;;;15.30;99.90;;;;;;5056057;28;20063;-77
2022/08/20 04:45:15;;;;;;;0.20;0.20;;;15.30;99.90;;;;;;5032967;28;20498;-73
2022/08/20 04:47:41;;;;;;;;;;;15.30;99.90;;;;;;5063160;28;20040;-77
2022/08/20 04:50:10;;;;;;;0.20;0.20;;;15.30;99.90;;;;;;5069869;28;20319;-73
2022/08/20 04:52:36;;;;;;;0.40;0.40;;;15.30;99.90;;;;;;5063245;28;20364;-76
2022/08/20 04:55:03;;;;;;;0.30;0.30;;;15.30;99.90;;;;;;5063181;28;20040;-76
2022/08/20 04:57:29;;;;;;;0.30;0.30;;;15.30;99.90;;;;;;5031175;28;20049;-76
2022/08/20 04:59:55;;;;;;;0.30;0.30;;;15.30;99.90;;;;;;5048672;28;20128;-74
2022/08/20 05:02:20;;;;;;;;;;;15.20;99.90;;;;;;5035940;28;20067;-73
2022/08/20 05:04:47;;;;;;;0.20;0.20;;;15.20;99.90;;;;;;5044299;28;19923;-76
2022/08/20 05:07:14;;;;;;;0.30;0.30;;;15.20;99.90;;;;;;5047668;28;20103;-76
2022/08/20 05:09:41;;;;;;;0.25;0.25;;;15.10;99.90;;;;;;5058156;28;20033;-76
2022/08/20 05:12:08;;;;;;;0.20;0.20;;;15.10;99.90;;;;;;5031928;28;20088;-74
2022/08/20 05:14:34;;;;;;;0.30;0.30;;;15.20;99.90;;;;;;5031084;28;20087;-75
2022/08/20 05:17:06;;;;;;;0.20;0.20;;;15.10;99.90;;;;;;5066638;28;20044;-75
2022/08/20 05:19:36;;;;;;;0.20;0.20;;;15.10;99.90;;;;;;5048266;28;20154;-74
2022/08/20 05:22:02;;;;;;;0.30;0.30;;;15.10;99.90;;;;;;5062831;28;20051;-77
2022/08/20 05:24:28;;;;;;;;;;;15.10;99.90;;;;;;5050199;28;20041;-74
2022/08/20 05:26:54;;;;;;;0.30;0.30;;;15.10;99.90;;;;;;5062292;28;19935;-74
2022/08/20 05:29:22;;;;;;;0.30;0.30;;;15.10;99.90;;;;;;5054168;28;20066;-75
2022/08/20 05:31:48;;;;;;;0.30;0.30;;;15.10;99.90;;;;;;5035495;28;20513;-74
2022/08/20 05:34:14;;;;;;;0.30;0.30;;;15.10;99.90;;;;;;5034176;28;20131;-76
2022/08/20 05:36:45;;;;;;;;;;;15.10;99.90;;;;;;5035577;28;20517;-73
2022/08/20 05:39:12;;;;;;;0.30;0.30;;;15.00;99.90;;;;;;5050057;28;19920;-74
2022/08/20 05:41:39;;;;;;;0.38;0.38;;;15.00;99.90;;;;;;5051060;28;20072;-74
2022/08/20 05:44:09;;;;;;;0.30;0.30;;;15.00;99.90;;;;;;5052728;28;20048;-73
2022/08/20 05:46:39;;;;;;;0.30;0.30;;;15.00;99.90;;;;;;5052192;28;20049;-73
2022/08/20 05:49:06;;;;;;;0.30;0.30;;;15.00;99.90;;;;;;5034646;28;20041;-74
2022/08/20 05:51:33;;;;;;;0.30;0.30;;;15.00;99.90;;;;;;5035482;28;20136;-72
2022/08/20 05:53:58;;;;;;;;;;;15.00;99.90;;;;;;5049668;28;20052;-77
2022/08/20 05:56:24;;;;;;;0.25;0.25;;;15.10;99.90;;;;;;5048779;28;20015;-72
2022/08/20 05:58:49;;;;;;;0.20;0.20;;;15.20;99.90;;;;;;5050153;28;20128;-74
2022/08/20 06:01:15;;;;;;;0.30;0.30;;;15.40;99.90;;;;;;5049044;28;20041;-72
2022/08/20 06:06:25;;;;;;;0.20;0.20;;;15.60;99.90;;;;;;5051250;28;20052;-71
2022/08/20 06:08:50;;;;;;;0.30;0.30;;;15.80;99.90;;;;;;5053158;28;20033;-74
2022/08/20 06:11:17;;;;;;;;;;;15.90;99.90;;;;;;5049881;28;20098;-72
2022/08/20 06:13:43;;;;;;;0.20;0.20;;;16.10;99.90;;;;;;5039074;28;19940;-75
2022/08/20 06:16:09;;;;;;;0.32;0.32;;;16.20;99.90;;;;;;5059262;28;20052;-74
2022/08/20 06:18:34;;;;;;;;;;;16.40;99.90;;;;;;5057924;28;20493;-74
2022/08/20 06:21:00;;;;;;;0.20;0.20;;;16.50;99.90;;;;;;5057122;28;19947;-73
2022/08/20 06:23:26;;;;;;;;;;;16.70;99.90;;;;;;5038411;28;20120;-73
2022/08/20 06:25:52;;;;;;;0.30;0.30;;;16.90;99.90;;;;;;5050086;28;19975;-74
2022/08/20 06:28:17;;;;;;;;;;;17.00;99.90;;;;;;5056268;28;20067;-73
2022/08/20 06:30:43;;;;;;;0.20;0.20;;;17.20;99.90;;;;;;5068446;28;19966;-73
2022/08/20 06:33:09;;;;;;;;;;;17.30;99.90;;;;;;5059067;28;20037;-77
2022/08/20 06:35:36;;;;;;;0.30;0.30;;;17.50;99.90;;;;;;5053441;28;19963;-75
2022/08/20 06:38:04;;;;;;;0.30;0.30;;;17.60;99.90;;;;;;5061841;28;20084;-73
2022/08/20 06:40:33;;;;;;;0.30;0.30;;;17.70;99.90;;;;;;5052847;28;20037;-72
2022/08/20 06:42:59;;;;;;;0.20;0.20;;;17.80;99.90;;;;;;5045621;28;20504;-73
2022/08/20 06:45:28;;;;;;;0.30;0.30;;;17.90;99.90;;;;;;5035008;28;20405;-72
2022/08/20 06:47:56;;;;;;;0.30;0.30;;;18.00;99.90;;;;;;5061857;28;20054;-72
2022/08/20 06:50:38;;;;;;;2.67;0.38;;;18.20;99.90;;;;;;5065244;28;20033;-73
2022/08/20 06:53:05;;;;;;;0.28;0.28;;;18.20;99.90;;;;;;5053604;28;20037;-76
2022/08/20 06:55:31;;;;;;;1.65;0.38;;;18.30;99.90;;;;;;5048883;28;20435;-73
2022/08/20 06:58:00;;;;;;;0.30;0.30;;;18.40;99.90;;;;;;5048929;28;20041;-74
2022/08/20 07:00:27;;;;;;;0.30;0.30;;;18.50;99.90;;;;;;5051228;28;20082;-73
2022/08/20 07:02:53;;;;;;;0.30;0.30;;;18.60;99.90;;;;;;5056769;28;20543;-73
2022/08/20 07:05:18;;;;;;;;;;;18.60;99.90;;;;;;5060834;28;20127;-74
2022/08/20 07:07:49;;;;;;;0.73;0.73;;;18.70;99.90;;;;;;5043784;28;19928;-74
2022/08/20 07:10:17;;;;;;;0.22;0.22;;;18.80;99.90;;;;;;5050252;28;20041;-72
2022/08/20 07:12:45;;;;;;;0.30;0.30;;;18.90;99.90;;;;;;5060129;28;20051;-73
2022/08/20 07:15:11;;;;;;;0.13;0.13;;;19.00;99.90;;;;;;5061692;28;20048;-73
2022/08/20 07:17:37;;;;;;;0.20;0.20;;;19.10;99.90;;;;;;5049911;28;20130;-74
2022/08/20 07:20:10;;;;;;;1.95;0.90;;;19.20;99.90;;;;;;5032021;28;20661;-74
2022/08/20 07:22:37;;;;;;;0.17;0.17;;;19.20;99.90;;;;;;5052352;28;20044;-74
2022/08/20 07:25:05;;;;;;;0.43;0.43;;;19.30;99.90;;;;;;5032149;28;20126;-74
2022/08/20 07:27:31;;;;;;;0.30;0.30;;;19.40;99.90;;;;;;5049134;28;20075;-76
2022/08/20 07:32:42;;;;;;;0.30;0.30;;;19.60;99.90;;;;;;5048667;28;20045;-76
2022/08/20 07:35:13;;;;;;;0.20;0.20;;;19.60;99.90;;;;;;5048162;28;20052;-76
2022/08/20 07:37:43;;;;;;;1.00;1.00;;;19.70;99.90;;;;;;5062593;28;20057;-76
2022/08/20 07:40:16;;;;;;;0.20;0.20;;;19.70;99.90;;;;;;5050460;28;20119;-75
2022/08/20 07:42:42;;;;;;;2.60;0.63;;;19.70;99.90;;;;;;5050937;28;20130;-76
2022/08/20 07:45:11;;;;;;;0.68;0.68;;;19.70;99.90;;;;;;5032387;28;20509;-77
2022/08/20 07:47:38;;;;;;;0.20;0.20;;;19.60;99.90;;;;;;5029435;28;20116;-75
2022/08/20 07:50:05;;;;;;;0.30;0.30;;;19.50;99.90;;;;;;5050954;28;20047;-76
2022/08/20 07:52:34;;;;;;;0.20;0.20;;;19.30;99.90;;;;;;5051566;28;20041;-75
2022/08/20 07:55:04;;;;;;;0.20;0.20;;;19.20;99.90;;;;;;5048836;28;20115;-75
2022/08/20 07:57:30;;;;;;;1.08;0.60;;;19.20;99.90;;;;;;5034141;28;20041;-75
2022/08/20 07:59:57;;;;;;;0.20;0.20;;;19.20;99.90;;;;;;5047780;28;20058;-75
2022/08/20 08:02:26;;;;;;;0.95;0.95;;;19.20;99.90;;;;;;5053601;28;20507;-75
2022/08/20 08:04:53;;;;;;;0.20;0.20;;;19.30;99.90;;;;;;5054086;28;20413;-76
2022/08/20 08:07:23;;;;;;;0.38;0.38;;;19.50;99.90;;;;;;5047274;28;20052;-76
2022/08/20 08:09:49;;;;;;;0.20;0.20;;;19.60;99.90;;;;;;5048702;28;20040;-75
2022/08/20 08:12:16;;;;;;;0.30;0.30;;;19.80;99.90;;;;;;5031878;28;20041;-75
2022/08/20 08:14:44;;;;;;;0.98;0.98;;;19.90;99.90;;;;;;5053879;28;20040;-75
2022/08/20 08:17:11;;;;;;;0.20;0.20;;;20.10;99.90;;;;;;5047520;28;20037;-75
2022/08/20 08:19:41;;;;;;;0.20;0.20;;;20.20;99.90;;;;;;5049098;28;20045;-76
2022/08/20 08:22:11;;;;;;;0.20;0.20;;;20.20;99.90;;;;;;5045381;28;20048;-78
2022/08/20 08:24:42;;;;;;;0.40;0.40;;;20.30;99.90;;;;;;5051384;28;20045;-75
2022/08/20 08:27:08;;;;;;;0.30;0.30;;;20.40;99.90;;;;;;5043883;28;20080;-75
2022/08/20 08:29:35;;;;;;;0.20;0.20;;;20.50;99.90;;;;;;5047256;28;20084;-76
2022/08/20 08:32:02;;;;;;;0.20;0.20;;;20.70;99.90;;;;;;5048429;28;20375;-76
2022/08/20 08:34:30;;;;;;;0.20;0.20;;;20.70;99.90;;;;;;5047843;28;20075;-76
2022/08/20 08:36:57;;;;;;;0.20;0.20;;;20.70;99.90;;;;;;5056054;28;20091;-75
2022/08/20 08:39:23;;;;;;;0.57;0.30;;;20.70;99.90;;;;;;5041261;28;20053;-74
2022/08/20 08:41:51;;;;;;;0.30;0.30;;;20.70;99.90;;;;;;5048303;28;20045;-76
2022/08/20 08:44:25;;;;;;;0.60;0.60;;;20.70;99.90;;;;;;5045973;28;20041;-74
2022/08/20 08:47:12;;;;;;;0.30;0.30;;;20.80;99.90;;;;;;5064160;28;20041;-76
2022/08/20 08:49:38;;;;;;;0.77;0.73;;;20.90;99.90;;;;;;5048438;28;20120;-76
2022/08/20 08:52:10;;;;;;;0.30;0.30;;;21.10;99.90;;;;;;5050964;28;20560;-74
2022/08/20 08:54:41;;;;;;;0.65;0.65;;;21.00;99.90;;;;;;5053512;28;20040;-76
2022/08/20 08:57:08;;;;;;;0.20;0.20;;;21.10;99.90;;;;;;5054012;28;20076;-76
2022/08/20 08:59:34;;;;;;;0.68;0.68;;;21.20;99.90;;;;;;5050443;28;20037;-77
2022/08/20 09:02:01;;;;;;;0.52;0.47;;;21.20;99.90;;;;;;5052776;28;20063;-75
2022/08/20 09:04:37;;;;;;;0.40;0.40;;;21.10;99.90;;;;;;5033656;28;20052;-77
2022/08/20 09:07:06;;;;;;;0.20;0.20;;;21.10;99.90;;;;;;5055391;28;20116;-74
2022/08/20 09:09:36;;;;;;;0.20;0.20;;;21.20;99.90;;;;;;5052822;28;20302;-76
2022/08/20 09:12:12;;;;;;;0.20;0.20;;;21.30;99.90;;;;;;5053454;28;20112;-76
2022/08/20 09:14:38;;;;;;;0.20;0.20;;;21.40;99.90;;;;;;5048913;28;20396;-76
2022/08/20 09:17:04;;;;;;;0.30;0.30;;;21.40;99.90;;;;;;5026324;28;20075;-75
2022/08/20 09:19:30;;;;;;;0.30;0.30;;;21.30;99.90;;;;;;5029360;28;20044;-75
2022/08/20 09:21:56;;;;;;;0.20;0.20;;;21.40;99.90;;;;;;5043800;28;20036;-76
2022/08/20 09:24:22;;;;;;;0.88;0.88;;;21.50;99.90;;;;;;5043973;28;20378;-75
2022/08/20 09:26:48;;;;;;;0.40;0.40;;;21.70;99.90;;;;;;5034878;28;20042;-75
2022/08/20 09:29:15;;;;;;;0.40;0.40;;;21.90;99.90;;;;;;5037580;28;20048;-75
2022/08/20 09:31:41;;;;;;;0.30;0.30;;;22.00;99.90;;;;;;5055266;28;20036;-74
2022/08/20 09:34:07;;;;;;;0.30;0.30;;;21.90;99.90;;;;;;5054110;28;20390;-76
2022/08/20 09:36:32;;;;;;;0.63;0.63;;;21.80;99.90;;;;;;5050524;28;20065;-75
2022/08/20 09:38:59;;;;;;;0.30;0.30;;;21.50;99.90;;;;;;5073472;28;20067;-76
2022/08/20 09:41:24;;;;;;;0.20;0.20;;;21.30;99.90;;;;;;5058955;28;20056;-74
2022/08/20 09:43:50;;;;;;;0.17;0.17;;;21.30;99.90;;;;;;5039880;28;20163;-75
2022/08/20 09:46:16;;;;;;;0.30;0.30;;;21.60;99.90;;;;;;5048735;28;20041;-75
2022/08/20 09:48:42;;;;;;;0.30;0.30;;;21.90;99.90;;;;;;5050391;28;20443;-75
2022/08/20 09:51:08;;;;;;;0.25;0.25;;;22.00;99.90;;;;;;5050026;28;20116;-75
2022/08/20 09:53:34;;;;;;;0.30;0.30;;;21.90;99.90;;;;;;5036005;28;20120;-75
2022/08/20 09:56:00;;;;;;;0.30;0.30;;;21.80;99.90;;;;;;5034229;28;20084;-74
2022/08/20 09:59:01;;;;;;;0.20;0.20;;;21.70;99.90;;;;;;5052494;28;20045;-75
2022/08/20 10:01:27;;;;;;;0.40;0.40;;;21.80;99.90;;;;;;5034607;28;20056;-76
2022/08/20 10:03:52;;;;;;;0.52;0.52;;;21.90;99.90;;;;;;5061308;28;20109;-76
2022/08/20 10:06:19;;;;;;;0.28;0.28;;;22.10;99.90;;;;;;5039183;28;20041;-76
2022/08/20 10:08:45;;;;;;;0.45;0.45;;;22.40;99.90;;;;;;5052059;28;20554;-76
2022/08/20 10:11:10;;;;;;;1.35;1.33;;;22.60;99.90;;;;;;5017320;28;20050;-75
2022/08/20 10:13:36;;;;;;;0.38;0.38;;;22.70;99.90;;;;;;4988902;28;20037;-75
2022/08/20 10:16:02;;;;;;;0.63;0.63;;;22.60;99.90;;;;;;5020390;28;20151;-74
2022/08/20 10:18:28;;;;;;;0.30;0.30;;;22.50;99.90;;;;;;5028481;28;20398;-77
2022/08/20 10:20:54;;;;;;;1.08;1.08;;;22.50;99.90;;;;;;5009058;28;20115;-75
2022/08/20 10:23:19;;;;;;;0.30;0.30;;;22.50;99.90;;;;;;5048891;28;20049;-77
2022/08/20 10:25:45;;;;;;;0.32;0.32;;;22.50;99.90;;;;;;5020439;28;20106;-75
2022/08/20 10:28:11;;;;;;;0.30;0.30;;;22.60;99.90;;;;;;5048232;28;20052;-74
2022/08/20 10:30:37;;;;;;;0.30;0.30;;;22.80;99.90;;;;;;5029649;28;20148;-75
2022/08/20 10:33:02;;;;;;;0.30;0.30;;;22.90;99.90;;;;;;5014895;28;20170;-75
2022/08/20 10:35:28;;;;;;;0.30;0.30;;;22.90;99.90;;;;;;5029111;28;20402;-75
2022/08/20 10:37:54;;;;;;;0.28;0.28;;;22.90;99.90;;;;;;5009136;28;20064;-74
2022/08/20 10:40:20;;;;;;;0.85;0.85;;;22.80;99.90;;;;;;5030377;28;20113;-75
2022/08/20 10:42:46;;;;;;;0.20;0.20;;;22.90;99.90;;;;;;5054680;28;20045;-75
2022/08/20 10:45:14;;;;;;;0.30;0.30;;;22.90;99.70;;;;;;5051441;28;20052;-75
2022/08/20 10:47:41;;;;;;;0.10;0.10;;;22.80;98.20;;;;;;5048146;28;20490;-76
2022/08/20 10:50:11;;;;;;;0.20;0.20;;;22.80;99.30;;;;;;5049913;28;20272;-76
2022/08/20 10:52:37;;;;;;;1.10;1.05;;;22.80;99.90;;;;;;5047074;28;20037;-77
2022/08/20 10:55:03;;;;;;;0.45;0.45;;;22.80;99.90;;;;;;5027287;28;20043;-73
2022/08/20 10:57:30;;;;;;;0.20;0.20;;;22.80;99.90;;;;;;5048095;28;20643;-74
2022/08/20 10:59:57;;;;;;;0.20;0.20;;;22.90;99.90;;;;;;5066705;28;20044;-75
2022/08/20 11:02:24;;;;;;;0.20;0.20;;;23.10;99.70;;;;;;5046056;28;20044;-75
2022/08/20 11:04:51;;;;;;;0.30;0.30;;;23.10;98.80;;;;;;5043487;28;20119;-77
2022/08/20 11:07:19;;;;;;;0.20;0.20;;;23.10;99.30;;;;;;5049112;28;20041;-77
2022/08/20 11:09:46;;;;;;;0.20;0.20;;;23.20;99.90;;;;;;5054791;28;20040;-77
2022/08/20 11:12:13;;;;;;;0.40;0.32;;;23.20;97.80;;;;;;5050358;28;20123;-75
2022/08/20 11:14:39;;;;;;;0.40;0.40;;;23.30;99.90;;;;;;5055807;28;20040;-76
2022/08/20 11:17:05;;;;;;;0.43;0.43;;;23.40;97.80;;;;;;5048973;28;20362;-76
2022/08/20 11:19:31;;;;;;;0.13;0.13;;;23.50;97.10;;;;;;5035000;28;20048;-74
2022/08/20 11:21:57;;;;;;;0.20;0.20;;;23.70;96.10;;;;;;5046397;28;20470;-75
2022/08/20 11:24:23;;;;;;;0.40;0.40;;;23.90;95.80;;;;;;5045005;28;20051;-74
2022/08/20 11:26:52;;;;;;;0.40;0.40;;;23.90;94.70;;;;;;5046061;28;20043;-75
2022/08/20 11:29:21;;;;;;;0.20;0.20;;;23.90;96.50;;;;;;5054736;28;20054;-74
2022/08/20 11:31:46;;;;;;;0.30;0.30;;;23.80;96.10;;;;;;5045765;28;20045;-74
2022/08/20 11:34:12;;;;;;;0.75;0.75;;;23.70;96.40;;;;;;5044612;28;20048;-76
2022/08/20 11:36:38;;;;;;;1.75;1.15;;;23.90;94.70;;;;;;5043435;28;20051;-77
2022/08/20 11:39:04;;;;;;;0.20;0.20;;;24.20;94.80;;;;;;5027774;28;20500;-75
2022/08/20 11:41:29;;;;;;;0.30;0.30;;;24.30;93.90;;;;;;5053433;28;20047;-76
2022/08/20 11:43:55;;;;;;;0.32;0.32;;;24.40;93.60;;;;;;5049838;28;20037;-75
2022/08/20 11:46:21;;;;;;;0.30;0.30;;;24.30;93.70;;;;;;5049335;28;20041;-76
2022/08/20 11:48:46;;;;;;;0.40;0.40;;;24.20;93.00;;;;;;5046894;28;20041;-75
2022/08/20 11:51:12;;;;;;;0.70;0.40;;;24.10;92.70;;;;;;5049578;28;20040;-76
2022/08/20 11:53:38;;;;;;;0.85;0.85;;;23.90;94.00;;;;;;5033633;28;20041;-73
2022/08/20 11:56:03;;;;;;;0.22;0.22;;;23.80;92.80;;;;;;5057928;28;20032;-74
2022/08/20 11:58:29;;;;;;;0.20;0.20;;;23.80;93.20;;;;;;5039400;28;20041;-74
2022/08/20 12:00:55;;;;;;;0.30;0.30;;;24.10;93.10;;;;;;5048559;28;20517;-75
2022/08/20 12:03:20;;;;;;;0.52;0.52;;;24.30;91.20;;;;;;5023901;28;20044;-77
2022/08/20 12:05:46;;;;;;;0.20;0.20;;;24.40;92.50;;;;;;5049702;28;20044;-77
2022/08/20 12:08:14;;;;;;;0.20;0.20;;;24.60;92.30;;;;;;5046219;28;20109;-75
2022/08/20 12:10:40;;;;;;;0.38;0.38;;;25.00;91.90;;;;;;5052700;28;20047;-74
2022/08/20 12:13:06;;;;;;;0.65;0.65;;;25.00;91.50;;;;;;5049578;28;20045;-74
2022/08/20 12:15:33;;;;;;;0.25;0.25;;;24.90;90.10;;;;;;5036968;28;20101;-75
2022/08/20 12:18:00;;;;;;;0.22;0.22;;;24.60;90.30;;;;;;5048930;28;20402;-77
2022/08/20 12:20:25;;;;;;;1.52;1.42;;;24.10;89.10;;;;;;5048028;28;20053;-73
2022/08/20 12:22:52;;;;;;;0.47;0.40;;;23.80;88.80;;;;;;5049159;28;20041;-76
2022/08/20 12:25:19;;;;;;;2.55;0.70;;;23.60;90.20;;;;;;5049275;28;20478;-76
2022/08/20 12:27:45;;;;;;;0.45;0.40;;;23.60;89.60;;;;;;5032120;28;20053;-74
2022/08/20 12:30:15;;;;;;;0.30;0.30;;;23.80;85.50;;;;;;5051853;28;20051;-76
2022/08/20 12:32:41;;;;;;;0.55;0.55;;;24.20;88.10;;;;;;5048836;28;20037;-74
2022/08/20 12:35:08;;;;;;;0.30;0.30;;;24.60;87.80;;;;;;5032682;28;20048;-76
2022/08/20 12:37:35;;;;;;;0.30;0.30;;;24.90;83.70;;;;;;5049155;28;20419;-76
2022/08/20 12:40:04;;;;;;;0.15;0.15;;;25.10;84.50;;;;;;5047433;28;20106;-75
2022/08/20 12:42:29;;;;;;;0.55;0.55;;;24.90;82.90;;;;;;5032176;28;20044;-75
2022/08/20 12:44:56;;;;;;;0.40;0.40;;;25.00;83.30;;;;;;5049014;28;20064;-75
2022/08/20 12:47:25;;;;;;;0.55;0.55;;;25.20;82.20;;;;;;5050821;28;20060;-78
2022/08/20 12:49:55;;;;;;;0.20;0.20;;;25.50;80.30;;;;;;5056539;28;20047;-74
2022/08/20 12:52:22;;;;;;;0.22;0.22;;;25.90;81.20;;;;;;5047865;28;20685;-77
2022/08/20 12:54:48;;;;;;;0.30;0.30;;;26.40;80.30;;;;;;5048361;28;20611;-78
2022/08/20 12:57:20;;;;;;;0.30;0.30;;;26.70;75.20;;;;;;5036584;28;20576;-75
2022/08/20 12:59:46;;;;;;;0.20;0.20;;;26.60;73.60;;;;;;5048836;28;20094;-78
2022/08/20 13:02:12;;;;;;;0.50;0.50;;;26.30;73.10;;;;;;5046136;28;20053;-75
2022/08/20 13:04:38;;;;;;;0.43;0.43;;;25.90;74.80;;;;;;5049445;28;20066;-78
2022/08/20 13:07:04;;;;;;;2.05;1.17;;;25.90;72.80;;;;;;5056225;28;20047;-75